sensor_id;sensor_type;location;lat;lon;timestamp;pressure;altitude;pressure_sealevel;temperature;humidity
79463;BME280;68931;47.286;18.756;2024-02-15T00:00:14;101378.28;;;4.50;93.19
79463;BME280;68931;47.286;18.756;2024-02-15T00:00:48;101379.97;;;4.53;93.13
79463;BME280;68931;47.286;18.756;2024-02-15T00:01:20;101366.25;;;4.46;93.17
79463;BME280;68931;47.286;18.756;2024-02-15T00:01:52;101378.22;;;4.55;93.13
79463;BME280;68931;47.286;18.756;2024-02-15T00:02:24;101379.09;;;4.54;93.00
79463;BME280;68931;47.286;18.756;2024-02-15T00:02:56;101384.25;;;4.56;93.82
79463;BME280;68931;47.286;18.756;2024-02-15T00:03:49;101375.69;;;4.50;93.76
79463;BME280;68931;47.286;18.756;2024-02-15T00:04:22;101383.41;;;4.53;93.57
79463;BME280;68931;47.286;18.756;2024-02-15T00:04:54;101379.94;;;4.54;93.30
79463;BME280;68931;47.286;18.756;2024-02-15T00:05:26;101367.09;;;4.47;93.32
79463;BME280;68931;47.286;18.756;2024-02-15T00:05:58;101378.22;;;4.55;93.48
79463;BME280;68931;47.286;18.756;2024-02-15T00:06:33;101378.19;;;4.57;94.13
79463;BME280;68931;47.286;18.756;2024-02-15T00:07:05;101380.72;;;4.58;93.61
79463;BME280;68931;47.286;18.756;2024-02-15T00:07:37;101361.81;;;4.50;93.31
79463;BME280;68931;47.286;18.756;2024-02-15T00:08:10;101361.81;;;4.51;93.72
79463;BME280;68931;47.286;18.756;2024-02-15T00:08:41;101377.19;;;4.62;93.95
79463;BME280;68931;47.286;18.756;2024-02-15T00:09:14;101377.19;;;4.62;93.71
79463;BME280;68931;47.286;18.756;2024-02-15T00:09:46;101375.47;;;4.63;93.68
79463;BME280;68931;47.286;18.756;2024-02-15T00:10:18;101370.25;;;4.63;93.83
79463;BME280;68931;47.286;18.756;2024-02-15T00:10:53;101368.59;;;4.59;93.53
79463;BME280;68931;47.286;18.756;2024-02-15T00:11:25;101367.66;;;4.63;94.23
79463;BME280;68931;47.286;18.756;2024-02-15T00:11:57;101371.91;;;4.67;94.12
79463;BME280;68931;47.286;18.756;2024-02-15T00:12:31;101372.75;;;4.67;94.15
79463;BME280;68931;47.286;18.756;2024-02-15T00:13:03;101371.84;;;4.70;93.44
79463;BME280;68931;47.286;18.756;2024-02-15T00:13:38;101360.75;;;4.62;94.05
79463;BME280;68931;47.286;18.756;2024-02-15T00:14:11;101377.03;;;4.71;94.13
79463;BME280;68931;47.286;18.756;2024-02-15T00:14:43;101371.00;;;4.69;93.41
79463;BME280;68931;47.286;18.756;2024-02-15T00:15:15;101379.59;;;4.73;93.33
79463;BME280;68931;47.286;18.756;2024-02-15T00:15:47;101384.78;;;4.74;93.65
79463;BME280;68931;47.286;18.756;2024-02-15T00:16:20;101376.13;;;4.74;94.20
79463;BME280;68931;47.286;18.756;2024-02-15T00:16:53;101376.97;;;4.74;93.99
79463;BME280;68931;47.286;18.756;2024-02-15T00:17:25;101371.81;;;4.73;93.50
79463;BME280;68931;47.286;18.756;2024-02-15T00:17:57;101364.06;;;4.70;93.57
79463;BME280;68931;47.286;18.756;2024-02-15T00:18:31;101370.03;;;4.75;94.15
79463;BME280;68931;47.286;18.756;2024-02-15T00:19:03;101369.97;;;4.76;93.78
79463;BME280;68931;47.286;18.756;2024-02-15T00:19:35;101369.13;;;4.76;93.25
79463;BME280;68931;47.286;18.756;2024-02-15T00:20:08;101371.72;;;4.76;94.22
79463;BME280;68931;47.286;18.756;2024-02-15T00:20:41;101375.22;;;4.75;93.75
79463;BME280;68931;47.286;18.756;2024-02-15T00:21:13;101331.50;;;4.50;93.71
79463;BME280;68931;47.286;18.756;2024-02-15T00:21:45;101376.88;;;4.79;94.47
79463;BME280;68931;47.286;18.756;2024-02-15T00:22:17;101379.47;;;4.79;93.35
79463;BME280;68931;47.286;18.756;2024-02-15T00:22:50;101375.09;;;4.81;93.40
79463;BME280;68931;47.286;18.756;2024-02-15T00:23:24;101377.72;;;4.81;93.26
79463;BME280;68931;47.286;18.756;2024-02-15T00:23:56;101363.91;;;4.76;94.02
79463;BME280;68931;47.286;18.756;2024-02-15T00:24:28;101380.22;;;4.84;93.33
79463;BME280;68931;47.286;18.756;2024-02-15T00:25:02;101367.34;;;4.78;93.69
79463;BME280;68931;47.286;18.756;2024-02-15T00:25:34;101376.81;;;4.82;93.79
79463;BME280;68931;47.286;18.756;2024-02-15T00:26:07;101374.22;;;4.82;93.41
79463;BME280;68931;47.286;18.756;2024-02-15T00:26:42;101357.03;;;4.75;93.25
79463;BME280;68931;47.286;18.756;2024-02-15T00:27:15;101375.03;;;4.84;93.83
79463;BME280;68931;47.286;18.756;2024-02-15T00:27:47;101380.19;;;4.87;93.67
79463;BME280;68931;47.286;18.756;2024-02-15T00:28:19;101372.41;;;4.85;93.64
79463;BME280;68931;47.286;18.756;2024-02-15T00:28:52;101366.47;;;4.79;93.61
79463;BME280;68931;47.286;18.756;2024-02-15T00:29:24;101377.56;;;4.88;93.42
79463;BME280;68931;47.286;18.756;2024-02-15T00:29:58;101377.53;;;4.90;93.63
79463;BME280;68931;47.286;18.756;2024-02-15T00:30:30;101377.53;;;4.90;93.73
79463;BME280;68931;47.286;18.756;2024-02-15T00:31:03;101374.09;;;4.88;93.26
79463;BME280;68931;47.286;18.756;2024-02-15T00:31:35;101380.00;;;4.95;93.79
79463;BME280;68931;47.286;18.756;2024-02-15T00:32:07;101380.91;;;4.93;93.17
79463;BME280;68931;47.286;18.756;2024-02-15T00:32:39;101335.44;;;4.71;93.27
79463;BME280;68931;47.286;18.756;2024-02-15T00:33:14;101371.50;;;4.88;93.49
79463;BME280;68931;47.286;18.756;2024-02-15T00:33:46;101383.50;;;4.93;93.29
79463;BME280;68931;47.286;18.756;2024-02-15T00:34:18;101385.25;;;4.93;93.52
79463;BME280;68931;47.286;18.756;2024-02-15T00:34:53;101378.28;;;4.95;93.26
79463;BME280;68931;47.286;18.756;2024-02-15T00:35:25;101363.66;;;4.89;93.90
79463;BME280;68931;47.286;18.756;2024-02-15T00:35:59;101367.19;;;4.87;93.11
79463;BME280;68931;47.286;18.756;2024-02-15T00:36:31;101373.97;;;4.94;93.10
79463;BME280;68931;47.286;18.756;2024-02-15T00:37:05;101367.97;;;4.92;93.29
79463;BME280;68931;47.286;18.756;2024-02-15T00:37:37;101382.59;;;4.96;94.10
79463;BME280;68931;47.286;18.756;2024-02-15T00:38:09;101380.00;;;4.95;93.90
79463;BME280;68931;47.286;18.756;2024-02-15T00:38:41;101381.72;;;4.97;92.90
79463;BME280;68931;47.286;18.756;2024-02-15T00:39:14;101375.69;;;4.95;93.52
79463;BME280;68931;47.286;18.756;2024-02-15T00:39:49;101378.34;;;4.92;93.81
79463;BME280;68931;47.286;18.756;2024-02-15T00:40:21;101380.81;;;5.00;93.42
79463;BME280;68931;47.286;18.756;2024-02-15T00:40:54;101392.06;;;5.00;93.46
79463;BME280;68931;47.286;18.756;2024-02-15T00:41:26;101363.66;;;4.89;93.37
79463;BME280;68931;47.286;18.756;2024-02-15T00:41:58;101384.34;;;4.94;93.27
79463;BME280;68931;47.286;18.756;2024-02-15T00:42:32;101386.06;;;4.97;93.81
79463;BME280;68931;47.286;18.756;2024-02-15T00:43:04;101385.25;;;4.93;93.45
79463;BME280;68931;47.286;18.756;2024-02-15T00:43:36;101376.69;;;4.88;94.25
79463;BME280;68931;47.286;18.756;2024-02-15T00:44:09;101368.06;;;4.86;93.34
79463;BME280;68931;47.286;18.756;2024-02-15T00:44:44;101382.72;;;4.90;93.85
79463;BME280;68931;47.286;18.756;2024-02-15T00:45:16;101366.34;;;4.85;93.92
79463;BME280;68931;47.286;18.756;2024-02-15T00:45:48;101371.53;;;4.85;93.14
79463;BME280;68931;47.286;18.756;2024-02-15T00:46:20;101373.22;;;4.87;92.99
79463;BME280;68931;47.286;18.756;2024-02-15T00:46:52;101375.69;;;4.95;93.18
79463;BME280;68931;47.286;18.756;2024-02-15T00:47:24;101365.47;;;4.86;93.86
79463;BME280;68931;47.286;18.756;2024-02-15T00:47:56;101371.44;;;4.91;93.46
79463;BME280;68931;47.286;18.756;2024-02-15T00:48:28;101370.59;;;4.90;93.50
79463;BME280;68931;47.286;18.756;2024-02-15T00:49:04;101370.47;;;4.95;93.76
79463;BME280;68931;47.286;18.756;2024-02-15T00:49:38;101376.59;;;4.92;93.50
79463;BME280;68931;47.286;18.756;2024-02-15T00:50:10;101377.41;;;4.95;93.68
79463;BME280;68931;47.286;18.756;2024-02-15T00:50:43;101375.69;;;4.93;93.59
79463;BME280;68931;47.286;18.756;2024-02-15T00:51:15;101368.03;;;4.87;93.86
79463;BME280;68931;47.286;18.756;2024-02-15T00:51:47;101383.44;;;4.97;93.83
79463;BME280;68931;47.286;18.756;2024-02-15T00:52:19;101378.22;;;4.98;93.44
79463;BME280;68931;47.286;18.756;2024-02-15T00:52:51;101370.59;;;4.89;93.25
79463;BME280;68931;47.286;18.756;2024-02-15T00:53:23;101368.00;;;4.89;93.13
79463;BME280;68931;47.286;18.756;2024-02-15T00:53:55;101380.88;;;4.95;93.61
79463;BME280;68931;47.286;18.756;2024-02-15T00:54:27;101366.25;;;4.91;93.67
79463;BME280;68931;47.286;18.756;2024-02-15T00:54:59;101378.28;;;4.95;93.66
79463;BME280;68931;47.286;18.756;2024-02-15T00:55:31;101381.75;;;4.94;94.25
79463;BME280;68931;47.286;18.756;2024-02-15T00:56:04;101368.88;;;4.89;93.89
79463;BME280;68931;47.286;18.756;2024-02-15T00:56:36;101380.00;;;4.96;94.04
79463;BME280;68931;47.286;18.756;2024-02-15T00:57:08;101371.34;;;4.94;94.59
79463;BME280;68931;47.286;18.756;2024-02-15T00:57:40;101373.97;;;4.92;94.07
79463;BME280;68931;47.286;18.756;2024-02-15T00:58:12;101377.41;;;4.95;94.89
79463;BME280;68931;47.286;18.756;2024-02-15T00:58:44;101369.66;;;4.93;94.64
79463;BME280;68931;47.286;18.756;2024-02-15T00:59:19;101373.09;;;4.93;94.43
79463;BME280;68931;47.286;18.756;2024-02-15T00:59:51;101369.66;;;4.93;94.11
79463;BME280;68931;47.286;18.756;2024-02-15T01:00:23;101380.81;;;5.00;94.06
79463;BME280;68931;47.286;18.756;2024-02-15T01:00:55;101367.97;;;4.92;94.54
79463;BME280;68931;47.286;18.756;2024-02-15T01:01:27;101377.31;;;5.01;94.38
79463;BME280;68931;47.286;18.756;2024-02-15T01:01:59;101380.66;;;5.06;94.32
79463;BME280;68931;47.286;18.756;2024-02-15T01:02:31;101369.56;;;4.98;94.20
79463;BME280;68931;47.286;18.756;2024-02-15T01:03:04;101375.50;;;5.04;94.18
79463;BME280;68931;47.286;18.756;2024-02-15T01:03:36;101373.78;;;5.03;94.19
79463;BME280;68931;47.286;18.756;2024-02-15T01:04:08;101385.06;;;5.02;94.74
79463;BME280;68931;47.286;18.756;2024-02-15T01:04:40;101369.59;;;4.96;94.96
79463;BME280;68931;47.286;18.756;2024-02-15T01:05:14;101363.56;;;4.94;94.47
79463;BME280;68931;47.286;18.756;2024-02-15T01:05:47;101373.81;;;5.02;94.57
79463;BME280;68931;47.286;18.756;2024-02-15T01:06:19;101382.44;;;5.04;95.03
79463;BME280;68931;47.286;18.756;2024-02-15T01:06:51;101377.22;;;5.04;94.70
79463;BME280;68931;47.286;18.756;2024-02-15T01:07:26;101383.28;;;5.04;95.09
79463;BME280;68931;47.286;18.756;2024-02-15T01:07:59;101384.16;;;5.03;95.33
79463;BME280;68931;47.286;18.756;2024-02-15T01:08:31;101367.78;;;5.00;94.79
79463;BME280;68931;47.286;18.756;2024-02-15T01:09:04;101381.50;;;5.08;95.10
79463;BME280;68931;47.286;18.756;2024-02-15T01:09:36;101382.34;;;5.08;95.05
79463;BME280;68931;47.286;18.756;2024-02-15T01:10:08;101375.44;;;5.07;95.31
79463;BME280;68931;47.286;18.756;2024-02-15T01:10:40;101371.13;;;5.06;94.79
79463;BME280;68931;47.286;18.756;2024-02-15T01:11:12;101361.75;;;4.98;95.17
79463;BME280;68931;47.286;18.756;2024-02-15T01:11:45;101374.59;;;5.05;95.22
79463;BME280;68931;47.286;18.756;2024-02-15T01:12:18;101368.59;;;5.02;94.98
79463;BME280;68931;47.286;18.756;2024-02-15T01:12:50;101368.56;;;5.03;95.45
79463;BME280;68931;47.286;18.756;2024-02-15T01:13:22;101373.78;;;5.03;94.79
79463;BME280;68931;47.286;18.756;2024-02-15T01:13:55;101376.31;;;5.06;94.88
79463;BME280;68931;47.286;18.756;2024-02-15T01:14:27;101375.47;;;5.06;95.25
79463;BME280;68931;47.286;18.756;2024-02-15T01:15:02;101370.25;;;5.06;95.28
79463;BME280;68931;47.286;18.756;2024-02-15T01:15:34;101364.25;;;5.02;95.26
79463;BME280;68931;47.286;18.756;2024-02-15T01:16:09;101377.06;;;5.11;94.94
79463;BME280;68931;47.286;18.756;2024-02-15T01:16:44;101377.94;;;5.12;94.95
79463;BME280;68931;47.286;18.756;2024-02-15T01:17:16;101372.75;;;5.10;95.12
79463;BME280;68931;47.286;18.756;2024-02-15T01:17:48;101376.28;;;5.09;94.80
79463;BME280;68931;47.286;18.756;2024-02-15T01:18:21;101372.81;;;5.09;94.49
79463;BME280;68931;47.286;18.756;2024-02-15T01:18:53;101369.38;;;5.07;95.17
79463;BME280;68931;47.286;18.756;2024-02-15T01:19:25;101367.63;;;5.07;94.86
79463;BME280;68931;47.286;18.756;2024-02-15T01:19:57;101369.31;;;5.10;94.64
79463;BME280;68931;47.286;18.756;2024-02-15T01:20:29;101375.34;;;5.10;94.72
79463;BME280;68931;47.286;18.756;2024-02-15T01:21:01;101360.88;;;4.99;95.19
79463;BME280;68931;47.286;18.756;2024-02-15T01:21:33;101368.56;;;5.03;95.48
79463;BME280;68931;47.286;18.756;2024-02-15T01:22:05;101378.78;;;5.12;94.66
79463;BME280;68931;47.286;18.756;2024-02-15T01:22:38;101379.63;;;5.14;95.27
79463;BME280;68931;47.286;18.756;2024-02-15T01:23:10;101369.25;;;5.13;94.86
79463;BME280;68931;47.286;18.756;2024-02-15T01:23:42;101375.31;;;5.13;94.84
79463;BME280;68931;47.286;18.756;2024-02-15T01:24:18;101376.09;;;5.17;94.78
79463;BME280;68931;47.286;18.756;2024-02-15T01:24:50;101375.28;;;5.15;95.05
79463;BME280;68931;47.286;18.756;2024-02-15T01:25:22;101370.97;;;5.12;94.93
79463;BME280;68931;47.286;18.756;2024-02-15T01:25:54;101382.19;;;5.16;95.40
79463;BME280;68931;47.286;18.756;2024-02-15T01:26:27;101377.16;;;5.08;94.68
79463;BME280;68931;47.286;18.756;2024-02-15T01:26:59;101371.09;;;5.08;95.36
79463;BME280;68931;47.286;18.756;2024-02-15T01:27:31;101344.59;;;4.90;94.85
79463;BME280;68931;47.286;18.756;2024-02-15T01:28:03;101370.28;;;5.04;94.40
79463;BME280;68931;47.286;18.756;2024-02-15T01:28:35;101369.25;;;5.11;94.90
79463;BME280;68931;47.286;18.756;2024-02-15T01:29:08;101367.63;;;5.07;94.97
79463;BME280;68931;47.286;18.756;2024-02-15T01:29:43;101370.03;;;5.16;94.81
79463;BME280;68931;47.286;18.756;2024-02-15T01:30:16;101376.09;;;5.17;94.51
79463;BME280;68931;47.286;18.756;2024-02-15T01:30:48;101374.38;;;5.16;94.42
79463;BME280;68931;47.286;18.756;2024-02-15T01:31:22;101359.72;;;5.12;94.28
79463;BME280;68931;47.286;18.756;2024-02-15T01:31:54;101357.09;;;5.13;94.73
79463;BME280;68931;47.286;18.756;2024-02-15T01:32:26;101380.28;;;5.24;94.04
79463;BME280;68931;47.286;18.756;2024-02-15T01:32:58;101366.47;;;5.20;94.07
79463;BME280;68931;47.286;18.756;2024-02-15T01:33:30;101375.09;;;5.22;94.71
79463;BME280;68931;47.286;18.756;2024-02-15T01:34:03;101363.09;;;5.17;94.38
79463;BME280;68931;47.286;18.756;2024-02-15T01:34:35;101376.78;;;5.25;93.88
79463;BME280;68931;47.286;18.756;2024-02-15T01:35:08;101361.34;;;5.19;94.62
79463;BME280;68931;47.286;18.756;2024-02-15T01:35:41;101373.31;;;5.26;94.41
79463;BME280;68931;47.286;18.756;2024-02-15T01:36:14;101380.28;;;5.24;94.40
79463;BME280;68931;47.286;18.756;2024-02-15T01:36:50;101369.06;;;5.20;94.78
79463;BME280;68931;47.286;18.756;2024-02-15T01:37:22;101374.28;;;5.20;94.35
79463;BME280;68931;47.286;18.756;2024-02-15T01:37:54;101368.22;;;5.20;94.90
79463;BME280;68931;47.286;18.756;2024-02-15T01:38:26;101369.13;;;5.19;94.11
79463;BME280;68931;47.286;18.756;2024-02-15T01:38:58;101351.00;;;5.14;94.41
79463;BME280;68931;47.286;18.756;2024-02-15T01:39:30;101366.38;;;5.25;94.65
79463;BME280;68931;47.286;18.756;2024-02-15T01:40:02;101362.94;;;5.24;94.30
79463;BME280;68931;47.286;18.756;2024-02-15T01:40:34;101367.31;;;5.22;93.94
79463;BME280;68931;47.286;18.756;2024-02-15T01:41:07;101362.13;;;5.21;94.52
79463;BME280;68931;47.286;18.756;2024-02-15T01:41:39;101363.88;;;5.20;94.38
79463;BME280;68931;47.286;18.756;2024-02-15T01:42:12;101361.34;;;5.17;94.47
79463;BME280;68931;47.286;18.756;2024-02-15T01:42:46;101368.13;;;5.24;94.73
79463;BME280;68931;47.286;18.756;2024-02-15T01:43:18;101351.81;;;5.18;93.97
79463;BME280;68931;47.286;18.756;2024-02-15T01:43:50;101369.72;;;5.30;93.65
79463;BME280;68931;47.286;18.756;2024-02-15T01:44:22;101368.91;;;5.28;94.65
79463;BME280;68931;47.286;18.756;2024-02-15T01:44:56;101364.63;;;5.27;94.61
79463;BME280;68931;47.286;18.756;2024-02-15T01:45:28;101356.91;;;5.22;94.20
79463;BME280;68931;47.286;18.756;2024-02-15T01:46:00;101369.72;;;5.30;94.27
79463;BME280;68931;47.286;18.756;2024-02-15T01:46:35;101368.09;;;5.26;94.20
79463;BME280;68931;47.286;18.756;2024-02-15T01:47:07;101363.00;;;5.21;94.65
79463;BME280;68931;47.286;18.756;2024-02-15T01:47:40;101363.81;;;5.23;93.97
79463;BME280;68931;47.286;18.756;2024-02-15T01:48:14;101362.88;;;5.27;94.04
79463;BME280;68931;47.286;18.756;2024-02-15T01:48:47;101374.06;;;5.29;94.27
79463;BME280;68931;47.286;18.756;2024-02-15T01:49:21;101361.97;;;5.28;93.90
79463;BME280;68931;47.286;18.756;2024-02-15T01:49:54;101369.75;;;5.28;94.12
79463;BME280;68931;47.286;18.756;2024-02-15T01:50:26;101371.47;;;5.29;94.02
79463;BME280;68931;47.286;18.756;2024-02-15T01:51:00;101368.06;;;5.27;94.88
79463;BME280;68931;47.286;18.756;2024-02-15T01:51:32;101361.25;;;5.22;93.91
79463;BME280;68931;47.286;18.756;2024-02-15T01:52:07;101368.03;;;5.29;94.18
79463;BME280;68931;47.286;18.756;2024-02-15T01:52:44;101338.16;;;5.08;94.48
79463;BME280;68931;47.286;18.756;2024-02-15T01:53:19;101374.88;;;5.33;94.15
79463;BME280;68931;47.286;18.756;2024-02-15T01:53:53;101354.28;;;5.24;94.39
79463;BME280;68931;47.286;18.756;2024-02-15T01:54:25;101361.09;;;5.28;94.51
79463;BME280;68931;47.286;18.756;2024-02-15T01:54:58;101354.28;;;5.22;93.96
79463;BME280;68931;47.286;18.756;2024-02-15T01:55:31;101361.03;;;5.31;94.39
79463;BME280;68931;47.286;18.756;2024-02-15T01:56:11;101361.84;;;5.35;93.96
79463;BME280;68931;47.286;18.756;2024-02-15T01:56:45;101363.59;;;5.34;94.45
79463;BME280;68931;47.286;18.756;2024-02-15T01:57:18;101367.94;;;5.34;93.62
79463;BME280;68931;47.286;18.756;2024-02-15T01:57:53;101368.75;;;5.36;94.52
79463;BME280;68931;47.286;18.756;2024-02-15T01:58:29;101363.63;;;5.33;93.83
79463;BME280;68931;47.286;18.756;2024-02-15T01:59:04;101358.44;;;5.31;94.49
79463;BME280;68931;47.286;18.756;2024-02-15T01:59:37;101364.53;;;5.30;94.14
79463;BME280;68931;47.286;18.756;2024-02-15T02:00:09;101364.66;;;5.25;94.40
79463;BME280;68931;47.286;18.756;2024-02-15T02:00:42;101326.88;;;5.08;94.68
79463;BME280;68931;47.286;18.756;2024-02-15T02:01:14;101365.47;;;5.27;94.61
79463;BME280;68931;47.286;18.756;2024-02-15T02:01:46;101356.88;;;5.24;94.09
79463;BME280;68931;47.286;18.756;2024-02-15T02:02:20;101362.81;;;5.29;93.96
79463;BME280;68931;47.286;18.756;2024-02-15T02:02:53;101360.34;;;5.24;94.15
79463;BME280;68931;47.286;18.756;2024-02-15T02:03:25;101350.00;;;5.20;93.84
79463;BME280;68931;47.286;18.756;2024-02-15T02:03:58;101362.03;;;5.25;94.54
79463;BME280;68931;47.286;18.756;2024-02-15T02:04:30;101344.91;;;5.17;94.68
79463;BME280;68931;47.286;18.756;2024-02-15T02:05:03;101348.31;;;5.19;94.81
79463;BME280;68931;47.286;18.756;2024-02-15T02:05:35;101362.91;;;5.26;94.45
79463;BME280;68931;47.286;18.756;2024-02-15T02:06:07;101352.53;;;5.24;94.60
79463;BME280;68931;47.286;18.756;2024-02-15T02:06:40;101356.84;;;5.25;94.96
79463;BME280;68931;47.286;18.756;2024-02-15T02:07:12;101354.25;;;5.25;94.09
79463;BME280;68931;47.286;18.756;2024-02-15T02:07:46;101343.91;;;5.21;94.73
79463;BME280;68931;47.286;18.756;2024-02-15T02:08:18;101355.13;;;5.24;94.42
79463;BME280;68931;47.286;18.756;2024-02-15T02:08:50;101351.72;;;5.21;94.61
79463;BME280;68931;47.286;18.756;2024-02-15T02:09:22;101343.16;;;5.17;94.14
79463;BME280;68931;47.286;18.756;2024-02-15T02:09:54;101356.00;;;5.23;94.29
79463;BME280;68931;47.286;18.756;2024-02-15T02:10:26;101349.06;;;5.24;94.02
79463;BME280;68931;47.286;18.756;2024-02-15T02:10:59;101359.41;;;5.27;93.89
79463;BME280;68931;47.286;18.756;2024-02-15T02:11:31;101360.28;;;5.27;93.88
79463;BME280;68931;47.286;18.756;2024-02-15T02:12:03;101357.69;;;5.27;94.13
79463;BME280;68931;47.286;18.756;2024-02-15T02:12:35;101347.38;;;5.21;94.02
79463;BME280;68931;47.286;18.756;2024-02-15T02:13:09;101349.94;;;5.24;94.00
79463;BME280;68931;47.286;18.756;2024-02-15T02:13:41;101359.41;;;5.27;94.53
79463;BME280;68931;47.286;18.756;2024-02-15T02:14:13;101350.78;;;5.25;93.97
79463;BME280;68931;47.286;18.756;2024-02-15T02:14:48;101351.63;;;5.25;94.51
79463;BME280;68931;47.286;18.756;2024-02-15T02:15:21;101349.06;;;5.24;94.35
79463;BME280;68931;47.286;18.756;2024-02-15T02:15:53;101343.13;;;5.19;94.56
79463;BME280;68931;47.286;18.756;2024-02-15T02:16:34;101348.25;;;5.22;94.19
79463;BME280;68931;47.286;18.756;2024-02-15T02:17:14;101357.69;;;5.26;94.58
79463;BME280;68931;47.286;18.756;2024-02-15T02:17:49;101362.03;;;5.25;94.49
79463;BME280;68931;47.286;18.756;2024-02-15T02:18:27;101335.25;;;5.20;93.96
79463;BME280;68931;47.286;18.756;2024-02-15T02:19:00;101350.78;;;5.25;94.58
79463;BME280;68931;47.286;18.756;2024-02-15T02:19:32;101346.50;;;5.22;94.23
79463;BME280;68931;47.286;18.756;2024-02-15T02:20:05;101355.13;;;5.24;94.26
79463;BME280;68931;47.286;18.756;2024-02-15T02:20:40;101343.94;;;5.19;94.27
79463;BME280;68931;47.286;18.756;2024-02-15T02:21:12;101353.41;;;5.23;94.31
79463;BME280;68931;47.286;18.756;2024-02-15T02:21:44;101342.31;;;5.15;94.02
79463;BME280;68931;47.286;18.756;2024-02-15T02:22:17;101349.13;;;5.21;93.79
79463;BME280;68931;47.286;18.756;2024-02-15T02:22:51;101355.13;;;5.24;94.29
79463;BME280;68931;47.286;18.756;2024-02-15T02:23:29;101349.94;;;5.23;94.62
79463;BME280;68931;47.286;18.756;2024-02-15T02:24:03;101346.50;;;5.22;94.59
79463;BME280;68931;47.286;18.756;2024-02-15T02:24:58;101346.53;;;5.21;94.50
79463;BME280;68931;47.286;18.756;2024-02-15T02:25:30;101348.41;;;5.14;94.24
79463;BME280;68931;47.286;18.756;2024-02-15T02:26:02;101347.56;;;5.12;95.02
79463;BME280;68931;47.286;18.756;2024-02-15T02:26:36;101352.72;;;5.15;94.95
79463;BME280;68931;47.286;18.756;2024-02-15T02:27:08;101347.56;;;5.12;94.41
79463;BME280;68931;47.286;18.756;2024-02-15T02:27:42;101344.97;;;5.12;94.43
79463;BME280;68931;47.286;18.756;2024-02-15T02:28:14;101352.72;;;5.15;94.64
79463;BME280;68931;47.286;18.756;2024-02-15T02:28:48;101354.53;;;5.12;94.72
79463;BME280;68931;47.286;18.756;2024-02-15T02:29:20;101341.63;;;5.07;94.77
79463;BME280;68931;47.286;18.756;2024-02-15T02:29:52;101346.81;;;5.09;94.29
79463;BME280;68931;47.286;18.756;2024-02-15T02:30:24;101349.47;;;5.06;94.52
79463;BME280;68931;47.286;18.756;2024-02-15T02:31:01;101347.78;;;5.03;94.95
79463;BME280;68931;47.286;18.756;2024-02-15T02:31:33;101348.66;;;5.02;95.05
79463;BME280;68931;47.286;18.756;2024-02-15T02:32:06;101347.03;;;4.98;95.41
79463;BME280;68931;47.286;18.756;2024-02-15T02:32:39;101341.81;;;4.98;94.71
79463;BME280;68931;47.286;18.756;2024-02-15T02:33:12;101345.34;;;4.96;94.38
79463;BME280;68931;47.286;18.756;2024-02-15T02:33:54;101341.09;;;4.91;94.69
79463;BME280;68931;47.286;18.756;2024-02-15T02:34:26;101324.88;;;4.80;95.22
79463;BME280;68931;47.286;18.756;2024-02-15T02:35:01;101343.81;;;4.85;94.78
79463;BME280;68931;47.286;18.756;2024-02-15T02:35:39;101337.84;;;4.82;95.24
79463;BME280;68931;47.286;18.756;2024-02-15T02:36:11;101344.81;;;4.78;94.71
79463;BME280;68931;47.286;18.756;2024-02-15T02:36:44;101336.19;;;4.76;95.38
79463;BME280;68931;47.286;18.756;2024-02-15T02:37:18;101339.53;;;4.83;95.68
79463;BME280;68931;47.286;18.756;2024-02-15T02:37:51;101346.41;;;4.85;95.03
79463;BME280;68931;47.286;18.756;2024-02-15T02:38:24;101342.94;;;4.85;94.97
79463;BME280;68931;47.286;18.756;2024-02-15T02:38:58;101351.59;;;4.85;95.57
79463;BME280;68931;47.286;18.756;2024-02-15T02:39:33;101353.41;;;4.83;95.67
79463;BME280;68931;47.286;18.756;2024-02-15T02:40:09;101347.41;;;4.80;95.93
79463;BME280;68931;47.286;18.756;2024-02-15T02:40:41;101341.38;;;4.76;96.12
79463;BME280;68931;47.286;18.756;2024-02-15T02:41:13;101348.28;;;4.79;95.55
79463;BME280;68931;47.286;18.756;2024-02-15T02:41:45;101330.41;;;4.64;95.90
79463;BME280;68931;47.286;18.756;2024-02-15T02:42:17;101343.22;;;4.73;96.07
79463;BME280;68931;47.286;18.756;2024-02-15T02:43:25;101348.31;;;4.77;96.01
79463;BME280;68931;47.286;18.756;2024-02-15T02:43:57;101337.22;;;4.68;96.89
79463;BME280;68931;47.286;18.756;2024-02-15T02:44:29;101356.09;;;4.77;96.95
79463;BME280;68931;47.286;18.756;2024-02-15T02:45:02;101349.25;;;4.75;96.10
79463;BME280;68931;47.286;18.756;2024-02-15T02:45:37;101355.25;;;4.75;96.71
79463;BME280;68931;47.286;18.756;2024-02-15T02:46:12;101351.84;;;4.75;96.78
79463;BME280;68931;47.286;18.756;2024-02-15T02:46:44;101355.38;;;4.71;96.67
79463;BME280;68931;47.286;18.756;2024-02-15T02:47:16;101342.53;;;4.63;96.62
79463;BME280;68931;47.286;18.756;2024-02-15T02:47:49;101350.22;;;4.68;97.16
79463;BME280;68931;47.286;18.756;2024-02-15T02:48:23;101353.66;;;4.70;97.15
79463;BME280;68931;47.286;18.756;2024-02-15T02:48:55;101351.91;;;4.72;97.43
79463;BME280;68931;47.286;18.756;2024-02-15T02:49:30;101349.31;;;4.70;97.61
79463;BME280;68931;47.286;18.756;2024-02-15T02:50:02;101352.78;;;4.71;97.49
79463;BME280;68931;47.286;18.756;2024-02-15T02:50:35;101355.44;;;4.68;97.56
79463;BME280;68931;47.286;18.756;2024-02-15T02:51:07;101354.53;;;4.69;96.83
79463;BME280;68931;47.286;18.756;2024-02-15T02:51:39;101339.13;;;4.60;96.89
79463;BME280;68931;47.286;18.756;2024-02-15T02:52:11;101351.19;;;4.64;96.64
79463;BME280;68931;47.286;18.756;2024-02-15T02:52:44;101354.69;;;4.61;97.08
79463;BME280;68931;47.286;18.756;2024-02-15T02:53:16;101343.59;;;4.53;97.16